Main page
METAR-TAF:

METAR-TAF

Airports :

Marshall Islands International Airport

Majuro, Marshall Islands

latitude: 07-04N, longitude: 171-17E, elevation: 2 m

Current weather observation

The report was made 7 minutes ago, at 19:51 UTC
Wind 8 kt from the East
Temperature 29°C
Humidity 79%
Pressure 1011 hPa
Visibility: 24.1 km
Few clouds at a height of 1500 ft
Scattered clouds at a height of 30000 ft

METAR: PKMJ 231951Z 08008KT 15SM FEW015 SCT300 29/25 A2984

Time: 07:58 (19:58 UTC)

Forecast

The report was made 2 hours and 31 minutes ago, at 17:27 UTC
Forecast valid from 23 at 18 UTC to 24 at 18 UTC
Wind 9 kt from the East
Visibility: 10 km
Few clouds at a height of 1800 ft
From 24 at 0600 UTC
Wind 9 kt from the East
Visibility: 10 km
Few clouds at a height of 1800 ft
Scattered clouds at a height of 5000 ft
showers in vicinity

TAF: PKMJ 231727Z 2318/2418 09009KT P6SM FEW018 FM240600 10009KT P6SM VCSH FEW018 SCT050

Weather observations and forecasts of more than 4000 airports (METAR and TAF reports).

The available stations are represented by yellow and red dots on the map.

Hover mouse over dot to see the name of the station.

Then click to see weather observations and forecasts.

To change the map : click on the green buttons with a black cross to zoom in, on the green button with a dash to zoom out, or on the green arrows for adjacent maps.


METAR-TAF: